Time;durP1;ratioP1;P1;durP2;ratioP2;P2;SDS_P1;SDS_P2;PMS_P1;PMS_P2;Temp;Humidity;BMP_temperature;BMP_pressure;BME280_temperature;BME280_humidity;BME280_pressure;Samples;Min_cycle;Max_cycle;Signal;HPM_P1;HPM_P2
2022/08/29 00:48:22;;;;;;;4.83;3.53;;;;;;;;;;5006361;28;20224;-41
2022/08/29 00:57:57;;;;;;;3.93;3.57;;;;;;;;;;4956704;28;20240;-44
2022/08/29 01:01:01;;;;;;;3.27;3.07;;;;;;;;;;5007569;28;20219;-43
2022/08/29 01:09:17;;;;;;;4.50;3.53;;;;;;;;;;5033316;23;20238;-36
2022/08/29 01:23:39;;;;;;;3.67;3.37;;;;;;;;;;4993539;28;20219;-45
2022/08/29 01:32:19;;;;;;;4.43;3.53;;;;;;;;;;4971885;28;20336;-44
2022/08/29 03:50:18;;;;;;;4.17;3.70;;;;;;;;;;4956166;28;20209;-33
2022/08/29 03:53:02;;;;;;;5.07;3.77;;;;;;;;;;4954841;29;20233;-36
2022/08/29 03:55:53;;;;;;;5.57;3.60;;;;;;;;;;4938663;29;20281;-33
2022/08/29 04:01:49;;;;;;;4.37;3.90;;;;;;;;;;4932312;29;20284;-35
2022/08/29 04:07:13;;;;;;;4.23;3.50;;;;;;;;;;4938527;29;20230;-35
2022/08/29 04:09:44;;;;;;;8.60;3.50;;;;;;;;;;4929823;29;20297;-36
2022/08/29 04:12:14;;;;;;;4.10;3.77;;;;;;;;;;4937531;29;20659;-36
2022/08/29 04:14:46;;;;;;;4.00;3.60;;;;;;;;;;4928318;29;20207;-36
2022/08/29 04:17:15;;;;;;;3.87;3.53;;;;;;;;;;4937490;29;20689;-36
2022/08/29 04:19:46;;;;;;;3.80;3.40;;;;;;;;;;4937178;29;20211;-35
2022/08/29 04:22:19;;;;;;;4.10;3.50;;;;;;;;;;4933977;29;20222;-34
2022/08/29 04:24:49;;;;;;;4.37;3.77;;;;;;;;;;4930232;29;20211;-34
2022/08/29 04:27:17;;;;;;;4.53;4.07;;;;;;;;;;4937601;29;20226;-39
2022/08/29 04:29:47;;;;;;;3.67;3.13;;;;;;;;;;4929089;29;20261;-38
2022/08/29 04:32:16;;;;;;;4.87;3.93;;;;;;;;;;4935505;29;20230;-36
2022/08/29 04:34:44;;;;;;;4.53;3.93;;;;;;;;;;4935991;29;20230;-36
2022/08/29 04:37:11;;;;;;;4.63;3.10;;;;;;;;;;4936867;29;20661;-35
2022/08/29 04:39:40;;;;;;;4.97;3.70;;;;;;;;;;4931408;29;20215;-36
2022/08/29 04:42:08;;;;;;;4.27;3.80;;;;;;;;;;4928320;29;20199;-34
2022/08/29 04:44:35;;;;;;;4.33;3.93;;;;;;;;;;4932689;29;20223;-34
2022/08/29 04:47:02;;;;;;;4.70;3.50;;;;;;;;;;4936937;29;20222;-35
2022/08/29 04:49:29;;;;;;;6.50;3.93;;;;;;;;;;5055172;23;20230;-35
2022/08/29 04:51:56;;;;;;;6.63;4.20;;;;;;;;;;4992781;28;20232;-33
2022/08/29 04:54:23;;;;;;;4.27;3.83;;;;;;;;;;4987980;28;20667;-31
2022/08/29 04:56:52;;;;;;;4.43;3.70;;;;;;;;;;4984216;28;20231;-35
2022/08/29 04:59:19;;;;;;;5.17;4.10;;;;;;;;;;4986064;28;20200;-32
2022/08/29 05:01:46;;;;;;;3.70;3.40;;;;;;;;;;4983656;28;20671;-32
2022/08/29 05:04:13;;;;;;;4.00;3.53;;;;;;;;;;4992442;28;20208;-33
2022/08/29 05:06:40;;;;;;;3.97;3.63;;;;;;;;;;4992822;28;20219;-31
2022/08/29 05:09:07;;;;;;;4.00;3.70;;;;;;;;;;4977058;28;20211;-31
2022/08/29 05:11:35;;;;;;;5.03;3.53;;;;;;;;;;4988411;28;20204;-30
2022/08/29 05:14:03;;;;;;;3.70;3.40;;;;;;;;;;4987124;28;20235;-35
2022/08/29 05:16:35;;;;;;;4.37;3.67;;;;;;;;;;4983885;28;20206;-33
2022/08/29 05:19:03;;;;;;;5.00;3.60;;;;;;;;;;4992206;28;20208;-34
2022/08/29 05:21:32;;;;;;;7.50;4.33;;;;;;;;;;4992184;28;20208;-32
2022/08/29 05:23:59;;;;;;;4.20;3.80;;;;;;;;;;4981836;28;20212;-33
2022/08/29 05:26:30;;;;;;;5.80;4.37;;;;;;;;;;4991875;28;20204;-31
2022/08/29 05:28:57;;;;;;;5.37;4.77;;;;;;;;;;4986083;28;20224;-32
2022/08/29 05:31:25;;;;;;;4.33;3.70;;;;;;;;;;4982026;28;20216;-34
2022/08/29 05:33:52;;;;;;;5.03;3.70;;;;;;;;;;4989470;28;20231;-34
2022/08/29 05:36:19;;;;;;;3.87;3.57;;;;;;;;;;4991672;28;20216;-32
2022/08/29 05:38:47;;;;;;;3.63;3.30;;;;;;;;;;4980072;28;20257;-30
2022/08/29 05:41:14;;;;;;;4.37;3.97;;;;;;;;;;4985040;28;20200;-32
2022/08/29 05:43:41;;;;;;;6.03;3.50;;;;;;;;;;4974269;28;20214;-31
2022/08/29 05:46:10;;;;;;;4.37;3.97;;;;;;;;;;4989126;28;20205;-33
2022/08/29 05:48:40;;;;;;;5.13;4.57;;;;;;;;;;4981328;28;20232;-33
2022/08/29 05:51:08;;;;;;;4.73;4.23;;;;;;;;;;4950298;28;20207;-34
2022/08/29 05:53:35;;;;;;;4.70;4.23;;;;;;;;;;4968491;28;20229;-33
2022/08/29 05:56:02;;;;;;;5.13;4.53;;;;;;;;;;4980979;28;20197;-32
2022/08/29 05:58:29;;;;;;;5.00;4.50;;;;;;;;;;4982567;28;20240;-30
2022/08/29 06:00:56;;;;;;;7.53;4.20;;;;;;;;;;4969121;28;20211;-32
2022/08/29 06:03:23;;;;;;;6.87;4.70;;;;;;;;;;4969014;28;20203;-32
2022/08/29 06:05:52;;;;;;;7.97;5.03;;;;;;;;;;4962029;28;20209;-34
2022/08/29 06:08:20;;;;;;;6.50;5.50;;;;;;;;;;4971624;28;20229;-31
2022/08/29 06:10:47;;;;;;;5.47;4.77;;;;;;;;;;4972047;28;20221;-32
2022/08/29 06:13:14;;;;;;;6.47;5.00;;;;;;;;;;4960727;28;20240;-33
2022/08/29 06:15:43;;;;;;;10.60;4.73;;;;;;;;;;4974735;28;20216;-32
2022/08/29 06:18:10;;;;;;;6.63;4.93;;;;;;;;;;4971281;28;20232;-34
2022/08/29 06:20:38;;;;;;;9.27;5.60;;;;;;;;;;4972337;28;20212;-34
2022/08/29 06:23:07;;;;;;;7.57;5.33;;;;;;;;;;4968904;28;20202;-34
2022/08/29 06:25:34;;;;;;;10.93;5.27;;;;;;;;;;4975638;28;20219;-34
2022/08/29 06:28:02;;;;;;;6.90;5.13;;;;;;;;;;4990962;28;20278;-33
2022/08/29 06:30:31;;;;;;;6.07;4.93;;;;;;;;;;4968887;28;20574;-31
2022/08/29 06:32:58;;;;;;;8.20;5.87;;;;;;;;;;4978816;28;20232;-33
2022/08/29 06:35:25;;;;;;;6.67;5.37;;;;;;;;;;4971132;28;20286;-33
2022/08/29 06:37:53;;;;;;;6.40;5.40;;;;;;;;;;4966980;28;20230;-32
2022/08/29 06:40:21;;;;;;;7.97;5.93;;;;;;;;;;4975786;28;20209;-33
2022/08/29 06:42:48;;;;;;;9.77;5.53;;;;;;;;;;4973607;28;20205;-33
2022/08/29 06:45:15;;;;;;;5.90;5.40;;;;;;;;;;4973630;28;20276;-32
2022/08/29 06:47:43;;;;;;;6.07;5.03;;;;;;;;;;4975778;28;20220;-31
2022/08/29 06:50:10;;;;;;;9.17;6.53;;;;;;;;;;4967438;28;20213;-33
2022/08/29 06:52:37;;;;;;;6.50;5.90;;;;;;;;;;4971033;28;20241;-32
2022/08/29 06:55:10;;;;;;;7.47;5.70;;;;;;;;;;4982974;28;20220;-34
2022/08/29 06:57:41;;;;;;;9.87;5.63;;;;;;;;;;4989631;28;20244;-32
2022/08/29 07:00:11;;;;;;;11.40;6.70;;;;;;;;;;4982657;28;20208;-31
2022/08/29 07:02:38;;;;;;;8.10;5.90;;;;;;;;;;4986623;28;20208;-33
2022/08/29 07:05:05;;;;;;;8.83;7.00;;;;;;;;;;4990145;28;20204;-32
2022/08/29 07:07:32;;;;;;;8.00;6.83;;;;;;;;;;4984318;28;20225;-31
2022/08/29 07:10:00;;;;;;;10.63;7.17;;;;;;;;;;4978810;28;20213;-32
2022/08/29 07:12:27;;;;;;;8.13;7.10;;;;;;;;;;4990444;28;20222;-33
2022/08/29 07:14:55;;;;;;;8.17;6.67;;;;;;;;;;4984408;28;20242;-34
2022/08/29 07:17:22;;;;;;;11.57;8.33;;;;;;;;;;4984570;28;20583;-32
2022/08/29 07:19:49;;;;;;;9.43;8.37;;;;;;;;;;4990486;28;20203;-33
2022/08/29 07:22:17;;;;;;;10.02;7.95;;;;;;;;;;4986229;28;20196;-31
2022/08/29 07:24:44;;;;;;;9.23;7.78;;;;;;;;;;4983036;28;20220;-33
2022/08/29 07:27:11;;;;;;;9.10;6.25;;;;;;;;;;4990132;28;20214;-32
2022/08/29 07:29:38;;;;;;;8.18;7.30;;;;;;;;;;4979112;28;20224;-33
2022/08/29 07:32:07;;;;;;;7.70;6.30;;;;;;;;;;4985878;28;20239;-30
2022/08/29 07:34:35;;;;;;;7.55;6.68;;;;;;;;;;4990023;28;20208;-33
2022/08/29 07:37:03;;;;;;;7.05;5.95;;;;;;;;;;4981569;28;20289;-31
2022/08/29 07:39:30;;;;;;;6.82;6.00;;;;;;;;;;4984490;28;20298;-32
2022/08/29 07:41:58;;;;;;;8.07;6.05;;;;;;;;;;4987171;28;20216;-32
2022/08/29 07:44:25;;;;;;;7.15;5.65;;;;;;;;;;4982410;28;20207;-30
2022/08/29 07:46:55;;;;;;;9.15;5.70;;;;;;;;;;4987307;28;20221;-28
2022/08/29 07:49:24;;;;;;;7.25;6.13;;;;;;;;;;4995139;28;20268;-31
2022/08/29 07:51:52;;;;;;;5.60;5.10;;;;;;;;;;4994411;28;20216;-31
2022/08/29 07:54:19;;;;;;;5.88;4.95;;;;;;;;;;4986467;28;20238;-28
2022/08/29 07:56:47;;;;;;;8.32;5.50;;;;;;;;;;4989829;28;20202;-30
2022/08/29 07:59:14;;;;;;;7.07;5.97;;;;;;;;;;4983361;28;20237;-31
2022/08/29 08:01:42;;;;;;;6.70;6.00;;;;;;;;;;4983146;28;20222;-32
2022/08/29 08:04:09;;;;;;;7.40;5.93;;;;;;;;;;4985636;28;20218;-30
2022/08/29 08:06:39;;;;;;;6.57;5.53;;;;;;;;;;4989687;28;20210;-29
2022/08/29 08:09:07;;;;;;;6.95;5.40;;;;;;;;;;4978848;28;20559;-32
2022/08/29 08:11:34;;;;;;;6.40;5.57;;;;;;;;;;4981245;28;20302;-31
2022/08/29 08:14:02;;;;;;;7.00;5.28;;;;;;;;;;4987875;28;20233;-32
2022/08/29 08:16:30;;;;;;;7.18;6.40;;;;;;;;;;4991975;28;20236;-31
2022/08/29 08:18:57;;;;;;;8.13;4.63;;;;;;;;;;4993001;28;20556;-30
2022/08/29 08:21:25;;;;;;;5.00;4.50;;;;;;;;;;4993359;28;20768;-30
2022/08/29 08:23:54;;;;;;;6.32;5.32;;;;;;;;;;4982353;28;20209;-30
2022/08/29 08:26:22;;;;;;;8.77;4.65;;;;;;;;;;4992765;28;20212;-32
2022/08/29 08:28:50;;;;;;;6.68;5.22;;;;;;;;;;4990225;28;20249;-30
2022/08/29 08:31:17;;;;;;;7.35;5.50;;;;;;;;;;4986614;28;20290;-31
2022/08/29 08:33:44;;;;;;;5.90;4.88;;;;;;;;;;4989675;28;20586;-29
2022/08/29 08:36:16;;;;;;;8.45;5.25;;;;;;;;;;4987229;28;20213;-31
2022/08/29 08:38:43;;;;;;;6.32;5.07;;;;;;;;;;4988597;28;20226;-28
2022/08/29 08:41:18;;;;;;;5.78;4.40;;;;;;;;;;4992717;28;20201;-31
2022/08/29 08:43:49;;;;;;;6.70;5.00;;;;;;;;;;4986119;28;20691;-29
2022/08/29 08:46:16;;;;;;;5.43;4.60;;;;;;;;;;4987857;28;20205;-32
2022/08/29 08:48:44;;;;;;;6.97;4.80;;;;;;;;;;4992700;28;20231;-29
2022/08/29 08:51:15;;;;;;;5.45;4.72;;;;;;;;;;4987135;28;20207;-31
2022/08/29 08:53:43;;;;;;;5.05;4.50;;;;;;;;;;4983353;28;20565;-31
2022/08/29 08:56:13;;;;;;;6.55;4.47;;;;;;;;;;4970803;28;20207;-32
2022/08/29 08:58:48;;;;;;;5.28;4.30;;;;;;;;;;4984691;28;20235;-32
2022/08/29 09:01:19;;;;;;;5.65;4.50;;;;;;;;;;4987424;28;20558;-31
2022/08/29 09:04:02;;;;;;;8.50;4.45;;;;;;;;;;4989048;28;20213;-29
2022/08/29 09:06:38;;;;;;;7.40;4.70;;;;;;;;;;4983530;28;20516;-30
2022/08/29 09:09:22;;;;;;;6.45;4.38;;;;;;;;;;4987680;28;20207;-32
2022/08/29 09:11:56;;;;;;;4.90;4.35;;;;;;;;;;4986983;28;20246;-31
2022/08/29 09:14:32;;;;;;;5.55;4.07;;;;;;;;;;4977899;28;20278;-32
2022/08/29 09:17:00;;;;;;;3.75;3.45;;;;;;;;;;4977308;28;20318;-30
2022/08/29 09:19:28;;;;;;;5.50;3.70;;;;;;;;;;4987641;28;20221;-30
2022/08/29 09:21:58;;;;;;;5.80;4.00;;;;;;;;;;4988299;28;20257;-30
2022/08/29 09:24:27;;;;;;;10.10;3.97;;;;;;;;;;4987776;28;20656;-29
2022/08/29 09:26:55;;;;;;;5.72;4.10;;;;;;;;;;4982169;28;20265;-30
2022/08/29 09:29:23;;;;;;;4.60;3.63;;;;;;;;;;4973874;28;20232;-30
2022/08/29 09:32:06;;;;;;;4.40;3.80;;;;;;;;;;4982312;28;20210;-31
2022/08/29 09:34:34;;;;;;;3.90;3.35;;;;;;;;;;4987897;28;20230;-28
2022/08/29 09:37:01;;;;;;;5.20;3.80;;;;;;;;;;4988395;28;20347;-31
2022/08/29 09:39:30;;;;;;;4.85;4.15;;;;;;;;;;4981468;28;20206;-31
2022/08/29 09:41:58;;;;;;;6.07;3.83;;;;;;;;;;4982660;28;20209;-29
2022/08/29 09:44:27;;;;;;;3.55;3.25;;;;;;;;;;4986060;28;20199;-32
2022/08/29 09:47:06;;;;;;;4.38;3.80;;;;;;;;;;4987128;28;20229;-31
2022/08/29 09:49:34;;;;;;;3.83;3.50;;;;;;;;;;4985623;28;20229;-32
2022/08/29 09:52:09;;;;;;;4.72;3.38;;;;;;;;;;4987008;28;20212;-30
2022/08/29 09:54:36;;;;;;;3.72;3.38;;;;;;;;;;4976078;28;20757;-30
2022/08/29 09:57:05;;;;;;;8.50;4.20;;;;;;;;;;4987550;28;20229;-30
2022/08/29 09:59:35;;;;;;;4.80;3.42;;;;;;;;;;4977833;28;20206;-31
2022/08/29 10:02:21;;;;;;;4.18;3.20;;;;;;;;;;4985418;28;20221;-32
2022/08/29 10:04:49;;;;;;;3.67;3.17;;;;;;;;;;4990082;28;20602;-29
2022/08/29 10:07:18;;;;;;;4.82;3.60;;;;;;;;;;4980616;28;20226;-29
2022/08/29 10:10:01;;;;;;;3.88;3.50;;;;;;;;;;4979751;28;20213;-31
2022/08/29 10:12:41;;;;;;;6.43;3.88;;;;;;;;;;4987595;28;20202;-31
2022/08/29 10:15:11;;;;;;;6.70;3.70;;;;;;;;;;4982599;28;20236;-30
2022/08/29 10:20:32;;;;;;;3.90;3.50;;;;;;;;;;4991025;28;20211;-31
2022/08/29 10:23:03;;;;;;;4.32;3.92;;;;;;;;;;4986818;28;20212;-29
2022/08/29 10:25:35;;;;;;;4.38;3.28;;;;;;;;;;4986830;28;20214;-32
2022/08/29 10:28:07;;;;;;;4.38;3.33;;;;;;;;;;4989851;28;20232;-32
2022/08/29 10:30:37;;;;;;;4.20;3.22;;;;;;;;;;4977294;28;20210;-33
2022/08/29 10:33:10;;;;;;;4.45;3.45;;;;;;;;;;4989123;28;20204;-32
2022/08/29 10:35:39;;;;;;;4.47;3.17;;;;;;;;;;4984377;28;20400;-31
2022/08/29 10:38:11;;;;;;;5.03;3.55;;;;;;;;;;4977537;28;20229;-28
2022/08/29 10:40:41;;;;;;;3.60;3.20;;;;;;;;;;4990190;28;20225;-33
2022/08/29 10:43:17;;;;;;;4.05;3.65;;;;;;;;;;4983727;28;20208;-30
2022/08/29 10:45:53;;;;;;;3.85;3.42;;;;;;;;;;4985234;28;20205;-30
2022/08/29 10:48:27;;;;;;;5.43;3.10;;;;;;;;;;4987007;28;20635;-31
2022/08/29 10:50:59;;;;;;;6.65;3.33;;;;;;;;;;4986083;28;20675;-29
2022/08/29 10:53:30;;;;;;;5.30;3.58;;;;;;;;;;4970110;28;20657;-30
2022/08/29 10:55:58;;;;;;;3.92;3.20;;;;;;;;;;4968584;28;20208;-31
2022/08/29 10:58:28;;;;;;;4.78;3.22;;;;;;;;;;4969085;28;20237;-32
2022/08/29 11:00:58;;;;;;;3.60;3.08;;;;;;;;;;4969277;28;20212;-33
2022/08/29 11:03:32;;;;;;;3.10;2.78;;;;;;;;;;4986817;28;20213;-33
2022/08/29 11:06:01;;;;;;;4.47;3.33;;;;;;;;;;4983368;28;20556;-31
2022/08/29 11:08:30;;;;;;;5.18;3.00;;;;;;;;;;4969915;28;20593;-32
2022/08/29 11:10:58;;;;;;;4.60;2.80;;;;;;;;;;4973560;28;20213;-32
2022/08/29 11:13:27;;;;;;;3.70;2.97;;;;;;;;;;4961374;28;20219;-29
2022/08/29 11:15:59;;;;;;;6.32;3.35;;;;;;;;;;4963749;28;20213;-30
2022/08/29 11:18:30;;;;;;;5.13;3.20;;;;;;;;;;4976270;28;20228;-31
2022/08/29 11:21:01;;;;;;;3.80;3.30;;;;;;;;;;4972178;28;20213;-28
2022/08/29 11:23:34;;;;;;;3.38;3.08;;;;;;;;;;4975381;28;20275;-31
2022/08/29 11:26:03;;;;;;;6.25;3.13;;;;;;;;;;4972996;28;20648;-33
2022/08/29 11:28:33;;;;;;;7.07;3.38;;;;;;;;;;4969374;28;20232;-33
2022/08/29 11:31:05;;;;;;;3.30;2.80;;;;;;;;;;4970343;28;20212;-33
2022/08/29 11:33:37;;;;;;;3.17;2.47;;;;;;;;;;4975222;28;20215;-31
2022/08/29 11:36:12;;;;;;;3.00;2.65;;;;;;;;;;4980774;28;20225;-32
2022/08/29 11:38:58;;;;;;;5.28;3.00;;;;;;;;;;4971731;28;20244;-31
2022/08/29 11:41:28;;;;;;;3.30;3.00;;;;;;;;;;4962955;28;20671;-31
2022/08/29 11:43:57;;;;;;;6.28;2.90;;;;;;;;;;4968032;28;20586;-31
2022/08/29 11:46:34;;;;;;;4.07;3.00;;;;;;;;;;4973288;28;20221;-32
2022/08/29 11:49:16;;;;;;;3.90;2.83;;;;;;;;;;4981639;28;20215;-31
2022/08/29 11:54:53;;;;;;;3.20;2.90;;;;;;;;;;4956429;28;20232;-42
2022/08/29 11:57:44;;;;;;;6.10;2.70;;;;;;;;;;4982703;23;20238;-41
2022/08/29 12:04:03;;;;;;;3.20;2.90;;;;;;;;;;4954346;28;20236;-41
2022/08/29 12:06:54;;;;;;;3.80;3.40;;;;;;;;;;4996730;28;20217;-42
2022/08/29 12:09:43;;;;;;;4.18;3.00;;;;;;;;;;4987639;28;20210;-44
2022/08/29 12:12:23;;;;;;;4.40;3.08;;;;;;;;;;4988949;28;20213;-43
2022/08/29 12:15:03;;;;;;;2.97;2.67;;;;;;;;;;4990665;28;20321;-43
2022/08/29 12:17:45;;;;;;;4.97;3.00;;;;;;;;;;4992737;28;20249;-41
2022/08/29 12:23:31;;;;;;;3.33;3.03;;;;;;;;;;4988860;28;20204;-43
2022/08/29 12:26:10;;;;;;;4.78;3.13;;;;;;;;;;4994707;28;20198;-42
2022/08/29 12:29:00;;;;;;;4.57;3.17;;;;;;;;;;4994352;28;20234;-43
2022/08/29 12:31:53;;;;;;;3.10;2.80;;;;;;;;;;4995857;28;20213;-40
2022/08/29 12:34:56;;;;;;;3.78;3.05;;;;;;;;;;4995859;28;20312;-42
2022/08/29 12:37:33;;;;;;;3.50;2.67;;;;;;;;;;4995219;28;20223;-45
2022/08/29 12:40:28;;;;;;;2.88;2.60;;;;;;;;;;4994685;28;20217;-43
2022/08/29 12:43:21;;;;;;;3.13;2.63;;;;;;;;;;4994038;28;20203;-42
2022/08/29 12:46:00;;;;;;;5.18;2.80;;;;;;;;;;4987800;28;20238;-37
2022/08/29 12:48:46;;;;;;;3.25;2.80;;;;;;;;;;4995727;28;20271;-43
2022/08/29 12:51:32;;;;;;;4.03;3.03;;;;;;;;;;4995763;28;20210;-44
2022/08/29 12:54:10;;;;;;;4.15;3.13;;;;;;;;;;4992366;28;20246;-42
2022/08/29 12:56:44;;;;;;;3.92;3.08;;;;;;;;;;4995387;28;20275;-43
2022/08/29 12:59:26;;;;;;;2.97;2.75;;;;;;;;;;5009504;28;20311;-45
2022/08/29 13:02:06;;;;;;;3.10;2.85;;;;;;;;;;5009205;28;20229;-40
2022/08/29 13:04:46;;;;;;;3.92;2.80;;;;;;;;;;5014380;28;20240;-42
2022/08/29 13:07:35;;;;;;;5.20;2.83;;;;;;;;;;5015306;28;20243;-39
2022/08/29 13:10:07;;;;;;;3.47;2.70;;;;;;;;;;5001459;28;20336;-43
2022/08/29 13:12:50;;;;;;;3.88;3.10;;;;;;;;;;5010282;28;20209;-45
2022/08/29 13:15:31;;;;;;;5.50;2.60;;;;;;;;;;5008756;28;20234;-45
2022/08/29 13:18:03;;;;;;;2.92;2.72;;;;;;;;;;5014374;28;20244;-43
2022/08/29 13:20:46;;;;;;;4.15;3.20;;;;;;;;;;5014915;28;20247;-42
2022/08/29 13:23:33;;;;;;;3.35;2.70;;;;;;;;;;5004688;28;20210;-41
2022/08/29 13:26:03;;;;;;;4.82;2.58;;;;;;;;;;5014365;28;20221;-45
2022/08/29 13:28:39;;;;;;;3.63;2.60;;;;;;;;;;5013292;28;20229;-43
2022/08/29 13:31:29;;;;;;;4.25;2.90;;;;;;;;;;5010045;28;20287;-41
2022/08/29 13:34:21;;;;;;;3.00;2.45;;;;;;;;;;5012788;28;20256;-40
2022/08/29 13:37:09;;;;;;;3.03;2.80;;;;;;;;;;5007631;28;20213;-43
2022/08/29 13:39:42;;;;;;;2.88;2.65;;;;;;;;;;5010582;28;20231;-41
2022/08/29 13:42:26;;;;;;;3.85;2.75;;;;;;;;;;5008891;28;20214;-44
2022/08/29 13:45:11;;;;;;;3.80;2.85;;;;;;;;;;5011526;28;20209;-43
2022/08/29 13:47:54;;;;;;;5.30;3.08;;;;;;;;;;5013755;28;20740;-42
2022/08/29 13:50:29;;;;;;;2.92;2.67;;;;;;;;;;5002269;28;20214;-46
2022/08/29 13:53:11;;;;;;;3.42;2.85;;;;;;;;;;5009416;28;20212;-42
2022/08/29 13:55:42;;;;;;;3.88;2.95;;;;;;;;;;5010199;28;20252;-39
2022/08/29 13:58:16;;;;;;;3.47;2.95;;;;;;;;;;5011450;28;20230;-44
2022/08/29 14:08:42;;;;;;;3.83;2.88;;;;;;;;;;5012066;23;20294;-37
2022/08/29 14:11:43;;;;;;;6.18;2.70;;;;;;;;;;5005949;28;20206;-36
2022/08/29 14:14:26;;;;;;;2.85;2.60;;;;;;;;;;5011053;28;20256;-35
2022/08/29 14:17:12;;;;;;;3.50;2.50;;;;;;;;;;5013493;28;20280;-34
2022/08/29 14:22:48;;;;;;;3.30;3.00;;;;;;;;;;5126168;23;20241;-32
2022/08/29 14:25:33;;;;;;;2.80;2.60;;;;;;;;;;4998701;28;20216;-36
2022/08/29 14:28:15;;;;;;;2.50;2.30;;;;;;;;;;5013980;28;20229;-37
2022/08/29 14:31:13;;;;;;;4.60;2.90;;;;;;;;;;4996635;28;20215;-33
2022/08/29 14:33:46;;;;;;;3.63;2.70;;;;;;;;;;5013678;28;20209;-37
2022/08/29 14:36:38;;;;;;;2.88;2.67;;;;;;;;;;5013382;28;20279;-34
2022/08/29 14:39:20;;;;;;;3.30;3.00;;;;;;;;;;5008694;28;20564;-33
2022/08/29 14:41:57;;;;;;;3.00;2.78;;;;;;;;;;5013527;28;20216;-37
2022/08/29 14:44:37;;;;;;;3.75;2.90;;;;;;;;;;5009369;28;20268;-36
2022/08/29 14:47:18;;;;;;;3.22;2.63;;;;;;;;;;5009696;28;20308;-34
2022/08/29 14:49:57;;;;;;;4.63;2.72;;;;;;;;;;5009583;28;20231;-36
2022/08/29 14:52:30;;;;;;;3.33;2.85;;;;;;;;;;5008114;28;20206;-33
2022/08/29 14:55:04;;;;;;;2.97;2.67;;;;;;;;;;5010083;28;20233;-35
2022/08/29 14:57:36;;;;;;;2.80;2.60;;;;;;;;;;5010464;28;20272;-37
2022/08/29 15:00:11;;;;;;;3.08;2.53;;;;;;;;;;5005525;28;20210;-33
2022/08/29 15:02:45;;;;;;;3.30;2.83;;;;;;;;;;5013451;28;20262;-34
2022/08/29 15:05:20;;;;;;;3.25;2.75;;;;;;;;;;5003857;28;20231;-33
2022/08/29 15:07:55;;;;;;;4.63;3.60;;;;;;;;;;5010713;28;20268;-36
2022/08/29 15:10:25;;;;;;;3.03;2.70;;;;;;;;;;5011968;28;20260;-40
2022/08/29 15:12:57;;;;;;;4.05;3.25;;;;;;;;;;5008845;28;20226;-36
2022/08/29 15:15:34;;;;;;;3.10;2.80;;;;;;;;;;5004186;28;20309;-38
2022/08/29 15:18:12;;;;;;;3.55;2.85;;;;;;;;;;5012162;28;20276;-35
2022/08/29 15:20:50;;;;;;;3.17;2.90;;;;;;;;;;5017407;28;20236;-36
2022/08/29 15:23:47;;;;;;;4.00;2.78;;;;;;;;;;5014008;28;20208;-37
2022/08/29 15:26:24;;;;;;;3.08;2.78;;;;;;;;;;5009101;28;20206;-36
2022/08/29 15:29:13;;;;;;;2.85;2.53;;;;;;;;;;5011234;28;20251;-34
2022/08/29 15:31:56;;;;;;;4.20;2.50;;;;;;;;;;5012074;28;20218;-36
2022/08/29 15:34:37;;;;;;;3.58;2.78;;;;;;;;;;5009555;28;20206;-34
2022/08/29 15:37:09;;;;;;;5.82;2.60;;;;;;;;;;5016793;28;20226;-34
2022/08/29 15:39:49;;;;;;;3.50;3.17;;;;;;;;;;5007693;28;20204;-33
2022/08/29 15:45:28;;;;;;;3.03;2.70;;;;;;;;;;5003907;28;20220;-32
2022/08/29 15:48:05;;;;;;;6.60;2.67;;;;;;;;;;5007050;28;20234;-35
2022/08/29 15:50:54;;;;;;;3.25;3.00;;;;;;;;;;5016510;28;20248;-32
2022/08/29 15:53:39;;;;;;;3.20;2.90;;;;;;;;;;5009302;28;20292;-37
2022/08/29 15:56:11;;;;;;;5.60;2.90;;;;;;;;;;5015382;28;20234;-35
2022/08/29 15:58:48;;;;;;;2.70;2.50;;;;;;;;;;5006804;28;20228;-34
2022/08/29 16:01:21;;;;;;;5.78;3.28;;;;;;;;;;5012184;28;20201;-35
2022/08/29 16:06:44;;;;;;;3.15;2.85;;;;;;;;;;4997218;28;20565;-34
2022/08/29 16:09:28;;;;;;;3.22;2.88;;;;;;;;;;5002012;28;20248;-37
2022/08/29 16:12:20;;;;;;;2.70;2.50;;;;;;;;;;5013906;28;20209;-37
2022/08/29 16:15:11;;;;;;;3.15;2.92;;;;;;;;;;5005334;28;20219;-33
2022/08/29 16:18:02;;;;;;;3.17;2.88;;;;;;;;;;5009330;28;20321;-33
2022/08/29 16:20:46;;;;;;;4.18;2.83;;;;;;;;;;5009046;28;20367;-36
2022/08/29 16:26:18;;;;;;;6.03;2.70;;;;;;;;;;5011677;28;20202;-32
2022/08/29 16:28:58;;;;;;;5.45;3.10;;;;;;;;;;5013167;28;20232;-35
2022/08/29 16:31:36;;;;;;;5.00;3.03;;;;;;;;;;5013194;28;20240;-33
2022/08/29 16:34:31;;;;;;;3.10;2.85;;;;;;;;;;5012358;28;20302;-35
2022/08/29 16:37:11;;;;;;;3.42;3.13;;;;;;;;;;5005615;28;20248;-35
2022/08/29 16:40:03;;;;;;;5.80;3.58;;;;;;;;;;5014286;28;20209;-36
2022/08/29 16:42:39;;;;;;;4.95;2.90;;;;;;;;;;5004330;28;20208;-36
2022/08/29 16:45:12;;;;;;;5.75;2.78;;;;;;;;;;5006097;28;20205;-32
2022/08/29 16:47:54;;;;;;;4.15;2.72;;;;;;;;;;5011590;28;20237;-37
2022/08/29 16:50:40;;;;;;;3.13;2.85;;;;;;;;;;5015554;28;20205;-33
2022/08/29 16:53:22;;;;;;;4.47;3.58;;;;;;;;;;5012562;28;20402;-36
2022/08/29 16:56:10;;;;;;;3.20;2.67;;;;;;;;;;4998200;28;20256;-36
2022/08/29 16:59:04;;;;;;;4.95;3.55;;;;;;;;;;5012503;28;20227;-36
2022/08/29 17:04:47;;;;;;;3.00;2.72;;;;;;;;;;5002486;28;20220;-34
2022/08/29 17:17:43;;;;;;;4.55;3.10;;;;;;;;;;5010892;28;20224;-36
2022/08/29 17:20:28;;;;;;;7.65;3.38;;;;;;;;;;5014064;28;20233;-36
2022/08/29 17:23:15;;;;;;;4.95;3.20;;;;;;;;;;5013697;28;20234;-37
2022/08/29 17:25:52;;;;;;;3.38;3.05;;;;;;;;;;5012922;28;20203;-33
2022/08/29 17:28:43;;;;;;;3.17;2.88;;;;;;;;;;5012306;28;20248;-34
2022/08/29 17:31:20;;;;;;;5.65;3.53;;;;;;;;;;5006202;28;20304;-31
2022/08/29 17:33:55;;;;;;;3.45;3.15;;;;;;;;;;5009552;28;20213;-32
2022/08/29 17:36:38;;;;;;;3.85;3.17;;;;;;;;;;5006924;28;20283;-32
2022/08/29 17:39:24;;;;;;;4.40;3.03;;;;;;;;;;5010810;28;20213;-36
2022/08/29 17:42:03;;;;;;;5.55;3.05;;;;;;;;;;5010867;28;20216;-33
2022/08/29 17:44:43;;;;;;;3.15;2.75;;;;;;;;;;5007235;28;20211;-33
2022/08/29 17:47:29;;;;;;;5.25;3.35;;;;;;;;;;5011158;28;20224;-35
2022/08/29 17:54:57;;;;;;;4.85;3.05;;;;;;;;;;4966294;28;20229;-36
2022/08/29 17:57:24;;;;;;;6.03;3.28;;;;;;;;;;4963439;28;20297;-41
2022/08/29 17:59:51;;;;;;;3.72;3.03;;;;;;;;;;4950688;28;20212;-35
2022/08/29 18:02:21;;;;;;;5.72;3.60;;;;;;;;;;4948368;28;20538;-36
2022/08/29 18:04:50;;;;;;;5.18;3.20;;;;;;;;;;4970250;28;20298;-36
2022/08/29 18:07:17;;;;;;;3.85;3.35;;;;;;;;;;4945153;28;20229;-38
2022/08/29 18:09:44;;;;;;;3.00;2.80;;;;;;;;;;4944829;28;20218;-37
2022/08/29 18:12:13;;;;;;;4.28;3.45;;;;;;;;;;4947426;28;20206;-37
2022/08/29 18:14:40;;;;;;;4.85;3.67;;;;;;;;;;4938623;28;20241;-36
2022/08/29 18:17:08;;;;;;;4.95;3.47;;;;;;;;;;4945039;28;20279;-36
2022/08/29 18:19:36;;;;;;;3.80;3.00;;;;;;;;;;4945450;29;20201;-35
2022/08/29 18:22:03;;;;;;;3.17;2.72;;;;;;;;;;4947868;28;20229;-39
2022/08/29 18:24:30;;;;;;;4.53;3.65;;;;;;;;;;4942384;29;20225;-38
2022/08/29 18:26:57;;;;;;;3.88;3.47;;;;;;;;;;4947731;29;20222;-37
2022/08/29 18:29:25;;;;;;;3.95;3.55;;;;;;;;;;4941079;29;20209;-37
2022/08/29 18:31:52;;;;;;;5.00;3.65;;;;;;;;;;4947099;29;20222;-37
2022/08/29 18:34:20;;;;;;;4.65;3.35;;;;;;;;;;4947190;29;20213;-40
2022/08/29 18:36:47;;;;;;;4.90;3.28;;;;;;;;;;4945049;28;20236;-38
2022/08/29 18:39:15;;;;;;;3.63;3.08;;;;;;;;;;4943204;29;20295;-39
2022/08/29 18:41:43;;;;;;;3.95;3.40;;;;;;;;;;4945324;28;20304;-43
2022/08/29 18:44:10;;;;;;;7.68;3.35;;;;;;;;;;4945927;29;20219;-35
2022/08/29 18:46:40;;;;;;;4.07;3.63;;;;;;;;;;4947854;29;20212;-39
2022/08/29 18:49:07;;;;;;;3.60;3.30;;;;;;;;;;4949607;29;20210;-41
2022/08/29 18:51:34;;;;;;;12.30;3.50;;;;;;;;;;4944875;29;20207;-37
2022/08/29 18:54:02;;;;;;;3.85;3.53;;;;;;;;;;4948743;28;20229;-37
2022/08/29 18:56:30;;;;;;;4.00;3.50;;;;;;;;;;4944633;29;20225;-39
2022/08/29 18:58:57;;;;;;;5.07;3.30;;;;;;;;;;4941053;28;20213;-36
2022/08/29 19:01:25;;;;;;;3.60;3.30;;;;;;;;;;4942299;29;20216;-42
2022/08/29 19:03:54;;;;;;;3.63;3.13;;;;;;;;;;4940590;29;20215;-39
2022/08/29 19:06:24;;;;;;;3.67;2.95;;;;;;;;;;4952451;29;20213;-42
2022/08/29 19:08:51;;;;;;;5.13;3.58;;;;;;;;;;4940316;29;20225;-36
2022/08/29 19:11:19;;;;;;;4.10;3.33;;;;;;;;;;4942012;28;20217;-39
2022/08/29 19:13:46;;;;;;;4.68;3.67;;;;;;;;;;4944012;28;20210;-41
2022/08/29 19:16:13;;;;;;;4.22;3.60;;;;;;;;;;4942097;28;20248;-40
2022/08/29 19:18:40;;;;;;;3.67;3.35;;;;;;;;;;4942060;29;20259;-41
2022/08/29 19:21:08;;;;;;;3.90;3.42;;;;;;;;;;4940420;29;20197;-39
2022/08/29 19:23:36;;;;;;;4.70;3.60;;;;;;;;;;4943725;29;20244;-34
2022/08/29 19:26:05;;;;;;;3.72;3.00;;;;;;;;;;4947770;29;20205;-39
2022/08/29 19:28:33;;;;;;;3.70;3.40;;;;;;;;;;4939855;29;20240;-43
2022/08/29 19:31:01;;;;;;;3.83;3.45;;;;;;;;;;4935870;29;20220;-41
2022/08/29 19:33:28;;;;;;;5.53;3.72;;;;;;;;;;4939688;29;20212;-39
2022/08/29 19:35:55;;;;;;;3.73;3.43;;;;;;;;;;4946403;28;20202;-36
2022/08/29 19:38:26;;;;;;;3.90;3.28;;;;;;;;;;4936023;29;20260;-41
2022/08/29 19:40:54;;;;;;;6.47;3.58;;;;;;;;;;4935823;29;20225;-41
2022/08/29 19:43:22;;;;;;;5.17;3.73;;;;;;;;;;4937857;29;20210;-39
2022/08/29 19:45:49;;;;;;;3.95;3.58;;;;;;;;;;4937919;29;20411;-40
2022/08/29 19:48:17;;;;;;;6.05;3.80;;;;;;;;;;4942905;29;20228;-40
2022/08/29 19:50:44;;;;;;;4.65;4.10;;;;;;;;;;4951663;29;20260;-38